createdAt,value
2023-03-13T00:00:15.466Z,-1.59
2023-03-13T00:01:18.199Z,-1.28
2023-03-13T00:02:14.851Z,-1.20
2023-03-13T00:03:12.069Z,-1.63
2023-03-13T00:04:08.811Z,-1.92
2023-03-13T00:05:05.818Z,-2.12
2023-03-13T00:06:02.501Z,-2.24
2023-03-13T00:06:59.130Z,-2.47
2023-03-13T00:07:55.690Z,-2.37
2023-03-13T00:08:52.751Z,-2.54
2023-03-13T00:09:49.626Z,-2.54
2023-03-13T00:10:46.192Z,-2.68
2023-03-13T00:11:44.029Z,-2.70
2023-03-13T00:12:40.690Z,-3.14
2023-03-13T00:13:37.846Z,-2.74
2023-03-13T00:14:34.589Z,-2.78
2023-03-13T00:15:31.366Z,-2.78
2023-03-13T00:16:29.155Z,-2.85
2023-03-13T00:17:25.767Z,-3.01
2023-03-13T00:18:22.345Z,-2.96
2023-03-13T00:19:18.914Z,-2.98
2023-03-13T00:20:17.596Z,-3.01
2023-03-13T00:21:15.368Z,-3.00
2023-03-13T00:22:12.012Z,-2.95
2023-03-13T00:23:08.614Z,-3.02
2023-03-13T00:24:05.438Z,-3.00
2023-03-13T00:25:02.036Z,-2.94
2023-03-13T00:26:00.587Z,-2.89
2023-03-13T00:26:58.617Z,-2.87
2023-03-13T00:27:55.305Z,-2.87
2023-03-13T00:28:53.181Z,-2.97
2023-03-13T00:29:50.858Z,-3.17
2023-03-13T00:30:47.546Z,-3.25
2023-03-13T00:31:44.212Z,-2.99
2023-03-13T00:32:46.207Z,-3.04
2023-03-13T00:33:45.801Z,-3.10
2023-03-13T00:34:42.398Z,-3.30
2023-03-13T00:35:39.036Z,-3.24
2023-03-13T00:36:36.314Z,-3.13
2023-03-13T00:37:32.925Z,-3.09
2023-03-13T00:38:31.722Z,-3.16
2023-03-13T00:39:28.289Z,-3.19
2023-03-13T00:40:24.848Z,-3.15
2023-03-13T00:41:24.242Z,-3.23
2023-03-13T00:42:22.575Z,-3.14
2023-03-13T00:43:19.156Z,-3.16
2023-03-13T00:44:15.813Z,-3.08
2023-03-13T00:45:12.411Z,-3.13
2023-03-13T00:46:10.453Z,-3.23
2023-03-13T00:47:07.553Z,-3.21
2023-03-13T00:48:04.280Z,-3.03
2023-03-13T00:49:00.897Z,-2.96
2023-03-13T00:49:57.497Z,-2.76
2023-03-13T00:50:54.627Z,-2.81
2023-03-13T00:51:51.223Z,-2.47
2023-03-13T00:52:47.794Z,-2.73
2023-03-13T00:53:44.983Z,-2.72
2023-03-13T00:54:41.588Z,-2.90
2023-03-13T00:55:38.201Z,-2.57
2023-03-13T00:56:34.915Z,-2.76
2023-03-13T00:57:31.524Z,-2.96
2023-03-13T00:58:29.867Z,-3.06
2023-03-13T00:59:26.453Z,-3.21
2023-03-13T01:00:23.108Z,-3.12
2023-03-13T01:01:32.370Z,-3.26
2023-03-13T01:02:29.007Z,-3.41
2023-03-13T01:03:25.862Z,-3.42
2023-03-13T01:04:22.577Z,-3.38
2023-03-13T01:05:19.232Z,-3.36
2023-03-13T01:06:18.113Z,-3.27
2023-03-13T01:07:14.721Z,-3.29
2023-03-13T01:08:11.426Z,-3.69
2023-03-13T01:09:11.209Z,-3.40
2023-03-13T01:10:08.416Z,-3.22
2023-03-13T01:11:11.549Z,-3.16
2023-03-13T01:12:08.574Z,-3.26
2023-03-13T01:13:06.808Z,-3.09
2023-03-13T01:14:06.833Z,-3.76
2023-03-13T01:15:03.815Z,-3.23
2023-03-13T01:16:07.788Z,-2.92
2023-03-13T01:17:04.547Z,-2.94
2023-03-13T01:18:01.147Z,-2.98
2023-03-13T01:19:02.079Z,-3.29
2023-03-13T01:19:58.681Z,-3.07
2023-03-13T01:20:55.257Z,-3.07
2023-03-13T01:21:51.912Z,-3.14
2023-03-13T01:22:48.499Z,-3.24
2023-03-13T01:23:45.506Z,-3.71
2023-03-13T01:24:42.450Z,-3.35
2023-03-13T01:25:40.651Z,-3.26
2023-03-13T01:26:37.429Z,-3.18
2023-03-13T01:27:34.165Z,-3.06
2023-03-13T01:28:30.856Z,-3.28
2023-03-13T01:29:27.527Z,-2.96
2023-03-13T01:30:24.273Z,-2.97
2023-03-13T01:31:27.536Z,-2.95
2023-03-13T01:32:24.190Z,-2.90
2023-03-13T01:33:20.840Z,-2.92
2023-03-13T01:34:17.574Z,-2.97
2023-03-13T01:35:15.324Z,-2.99
2023-03-13T01:36:12.759Z,-2.90
2023-03-13T01:37:09.431Z,-2.90
2023-03-13T01:38:06.133Z,-2.81
2023-03-13T01:39:02.863Z,-2.54
2023-03-13T01:39:59.450Z,-2.69
2023-03-13T01:40:56.040Z,-2.89
2023-03-13T01:41:52.655Z,-3.32
2023-03-13T01:42:57.465Z,-3.27
2023-03-13T01:43:55.636Z,-3.60
2023-03-13T01:44:55.297Z,-3.15
2023-03-13T01:45:57.923Z,-3.24
2023-03-13T01:46:54.643Z,-3.38
2023-03-13T01:47:51.401Z,-3.51
2023-03-13T01:49:11.352Z,-3.57
2023-03-13T01:50:08.437Z,-3.68
2023-03-13T01:51:10.353Z,-3.58
2023-03-13T01:52:31.112Z,-3.56
2023-03-13T01:53:31.354Z,-3.62
2023-03-13T01:54:40.762Z,-3.37
2023-03-13T01:55:37.507Z,-3.34
2023-03-13T01:56:55.186Z,-3.36
2023-03-13T01:57:53.953Z,-3.43
2023-03-13T01:58:52.371Z,-3.41
2023-03-13T01:59:57.268Z,-3.48
2023-03-13T02:00:54.103Z,-3.36
2023-03-13T02:01:53.162Z,-3.54
2023-03-13T02:02:53.567Z,-3.57
2023-03-13T02:03:50.704Z,-3.52
2023-03-13T02:04:55.833Z,-3.52
2023-03-13T02:05:52.640Z,-3.55
2023-03-13T02:06:53.411Z,-3.59
2023-03-13T02:08:08.303Z,-3.67
2023-03-13T02:09:22.555Z,-3.68
2023-03-13T02:10:19.838Z,-3.73
2023-03-13T02:11:20.797Z,-3.97
2023-03-13T02:12:29.377Z,-4.06
2023-03-13T02:13:26.116Z,-4.02
2023-03-13T02:14:28.064Z,-3.93
2023-03-13T02:15:27.470Z,-3.77
2023-03-13T02:16:24.387Z,-3.89
2023-03-13T02:17:21.116Z,-3.90
2023-03-13T02:18:17.923Z,-3.52
2023-03-13T02:19:31.438Z,-3.28
2023-03-13T02:20:28.104Z,-3.19
2023-03-13T02:21:34.675Z,-3.32
2023-03-13T02:22:39.964Z,-3.40
2023-03-13T02:23:49.978Z,-3.21
2023-03-13T02:24:58.594Z,-2.85
2023-03-13T02:25:56.195Z,-2.72
2023-03-13T02:26:54.505Z,-2.80
2023-03-13T02:27:55.139Z,-3.03
2023-03-13T02:28:51.867Z,-3.30
2023-03-13T02:29:49.638Z,-3.37
2023-03-13T02:30:48.033Z,-3.47
2023-03-13T02:31:47.122Z,-3.51
2023-03-13T02:32:45.856Z,-3.65
2023-03-13T02:33:45.726Z,-3.94
2023-03-13T02:34:44.285Z,-3.73
2023-03-13T02:35:42.934Z,-3.75
2023-03-13T02:36:40.561Z,-3.91
2023-03-13T02:37:37.454Z,-3.65
2023-03-13T02:38:40.467Z,-3.61
2023-03-13T02:39:42.425Z,-3.55
2023-03-13T02:40:42.496Z,-3.57
2023-03-13T02:41:42.291Z,-3.72
2023-03-13T02:42:42.099Z,-4.02
2023-03-13T02:43:38.983Z,-3.92
2023-03-13T02:44:40.090Z,-3.98
2023-03-13T02:45:36.766Z,-4.04
2023-03-13T02:46:45.404Z,-3.99
2023-03-13T02:47:42.349Z,-4.05
2023-03-13T02:48:47.734Z,-4.01
2023-03-13T02:49:44.359Z,-3.91
2023-03-13T02:50:40.964Z,-3.78
2023-03-13T02:51:45.304Z,-3.86
2023-03-13T02:52:46.842Z,-3.97
2023-03-13T02:53:44.868Z,-3.96
2023-03-13T02:54:44.900Z,-4.01
2023-03-13T02:55:42.427Z,-4.13
2023-03-13T02:56:43.787Z,-4.24
2023-03-13T02:57:40.362Z,-4.29
2023-03-13T02:58:49.778Z,-4.37
2023-03-13T02:59:46.869Z,-4.32
2023-03-13T03:00:43.753Z,-4.23
2023-03-13T03:01:40.408Z,-4.39
2023-03-13T03:02:37.025Z,-4.22
2023-03-13T03:03:37.074Z,-4.33
2023-03-13T03:04:33.709Z,-4.11
2023-03-13T03:05:30.398Z,-4.22
2023-03-13T03:06:27.041Z,-4.18
2023-03-13T03:07:23.620Z,-3.85
2023-03-13T03:08:20.201Z,-3.83
2023-03-13T03:09:17.518Z,-3.84
2023-03-13T03:10:14.599Z,-3.91
2023-03-13T03:11:11.781Z,-3.90
2023-03-13T03:12:08.774Z,-3.77
2023-03-13T03:13:05.367Z,-4.05
2023-03-13T03:14:02.356Z,-3.95
2023-03-13T03:14:59.150Z,-3.96
2023-03-13T03:15:55.792Z,-3.96
2023-03-13T03:16:52.456Z,-3.96
2023-03-13T03:17:49.149Z,-3.89
2023-03-13T03:18:45.730Z,-3.79
2023-03-13T03:19:42.368Z,-3.70
2023-03-13T03:20:38.953Z,-4.00
2023-03-13T03:21:35.740Z,-3.67
2023-03-13T03:22:32.384Z,-3.63
2023-03-13T03:23:29.241Z,-3.84
2023-03-13T03:24:25.891Z,-3.70
2023-03-13T03:25:22.467Z,-3.67
2023-03-13T03:26:21.916Z,-3.68
2023-03-13T03:27:18.532Z,-4.01
2023-03-13T03:28:15.140Z,-3.90
2023-03-13T03:29:11.704Z,-4.40
2023-03-13T03:30:08.923Z,-4.19
2023-03-13T03:31:07.327Z,-4.23
2023-03-13T03:32:03.972Z,-4.26
2023-03-13T03:33:03.344Z,-4.23
2023-03-13T03:34:00.494Z,-4.49
2023-03-13T03:34:57.110Z,-4.23
2023-03-13T03:36:00.054Z,-4.27
2023-03-13T03:36:56.767Z,-4.36
2023-03-13T03:37:53.375Z,-4.23
2023-03-13T03:38:50.493Z,-4.65
2023-03-13T03:39:47.216Z,-4.39
2023-03-13T03:40:43.951Z,-3.70
2023-03-13T03:41:40.668Z,-3.52
2023-03-13T03:42:37.326Z,-3.45
2023-03-13T03:43:34.153Z,-3.79
2023-03-13T03:44:30.778Z,-3.64
2023-03-13T03:45:27.610Z,-4.00
2023-03-13T03:46:24.890Z,-4.01
2023-03-13T03:47:21.484Z,-4.20
2023-03-13T03:48:18.114Z,-4.16
2023-03-13T03:49:14.706Z,-4.22
2023-03-13T03:50:11.582Z,-4.18
2023-03-13T03:51:08.262Z,-4.15
2023-03-13T03:52:05.120Z,-4.33
2023-03-13T03:53:01.865Z,-4.04
2023-03-13T03:53:58.514Z,-3.99
2023-03-13T03:54:55.071Z,-4.02
2023-03-13T03:55:52.175Z,-4.18
2023-03-13T03:56:48.740Z,-4.10
2023-03-13T03:57:45.344Z,-4.09
2023-03-13T03:58:42.002Z,-4.03
2023-03-13T03:59:38.631Z,-4.21
2023-03-13T04:00:35.199Z,-3.92
2023-03-13T04:01:31.862Z,-4.10
2023-03-13T04:02:28.493Z,-4.15
2023-03-13T04:03:25.602Z,-4.22
2023-03-13T04:04:22.319Z,-4.21
2023-03-13T04:05:19.019Z,-4.28
2023-03-13T04:06:15.730Z,-4.32
2023-03-13T04:07:12.348Z,-4.36
2023-03-13T04:08:09.461Z,-4.29
2023-03-13T04:09:06.045Z,-4.31
2023-03-13T04:10:03.656Z,-4.28
2023-03-13T04:11:01.932Z,-4.23
2023-03-13T04:11:58.506Z,-4.06
2023-03-13T04:12:55.153Z,-4.03
2023-03-13T04:13:51.769Z,-4.04
2023-03-13T04:14:48.426Z,-4.33
2023-03-13T04:15:45.302Z,-4.22
2023-03-13T04:16:41.939Z,-4.10
2023-03-13T04:17:38.955Z,-4.43
2023-03-13T04:18:35.602Z,-4.24
2023-03-13T04:19:32.221Z,-4.33
2023-03-13T04:20:28.946Z,-4.31
2023-03-13T04:21:25.620Z,-4.27
2023-03-13T04:22:22.188Z,-4.20
2023-03-13T04:23:18.791Z,-4.36
2023-03-13T04:24:15.442Z,-3.91
2023-03-13T04:25:12.115Z,-3.92
2023-03-13T04:26:08.691Z,-4.04
2023-03-13T04:27:06.663Z,-4.45
2023-03-13T04:28:03.330Z,-4.06
2023-03-13T04:28:59.898Z,-4.10
2023-03-13T04:29:56.510Z,-4.18
2023-03-13T04:30:57.206Z,-4.17
2023-03-13T04:31:54.031Z,-4.17
2023-03-13T04:32:51.254Z,-4.20
2023-03-13T04:33:47.879Z,-4.40
2023-03-13T04:34:44.439Z,-4.55
2023-03-13T04:35:41.153Z,-4.57
2023-03-13T04:36:37.866Z,-4.57
2023-03-13T04:37:34.563Z,-4.52
2023-03-13T04:38:31.184Z,-4.63
2023-03-13T04:39:27.772Z,-4.57
2023-03-13T04:40:24.423Z,-4.34
2023-03-13T04:41:21.022Z,-4.31
2023-03-13T04:42:17.566Z,-4.34
2023-03-13T04:43:14.203Z,-4.33
2023-03-13T04:44:10.815Z,-4.37
2023-03-13T04:45:10.728Z,-4.78
2023-03-13T04:46:07.388Z,-4.46
2023-03-13T04:47:04.706Z,-4.94
2023-03-13T04:48:01.345Z,-4.59
2023-03-13T04:48:58.166Z,-4.50
2023-03-13T04:49:54.741Z,-4.51
2023-03-13T04:50:51.647Z,-4.52
2023-03-13T04:51:48.348Z,-4.52
2023-03-13T04:52:44.882Z,-4.55
2023-03-13T04:53:41.457Z,-4.54
2023-03-13T04:54:38.114Z,-4.52
2023-03-13T04:55:34.712Z,-4.54
2023-03-13T04:56:42.850Z,-4.54
2023-03-13T04:57:40.073Z,-4.63
2023-03-13T04:58:36.786Z,-4.89
2023-03-13T04:59:33.624Z,-4.39
2023-03-13T05:00:30.154Z,-4.26
2023-03-13T05:01:26.818Z,-4.24
2023-03-13T05:02:23.516Z,-4.32
2023-03-13T05:03:20.154Z,-4.42
2023-03-13T05:04:17.108Z,-4.46
2023-03-13T05:05:13.763Z,-4.45
2023-03-13T05:06:10.403Z,-4.63
2023-03-13T05:07:07.050Z,-4.49
2023-03-13T05:08:03.779Z,-4.58
2023-03-13T05:09:00.818Z,-4.60
2023-03-13T05:09:57.395Z,-4.56
2023-03-13T05:10:53.987Z,-4.53
2023-03-13T05:11:50.826Z,-4.47
2023-03-13T05:12:47.460Z,-4.35
2023-03-13T05:13:44.083Z,-4.65
2023-03-13T05:14:40.769Z,-4.14
2023-03-13T05:15:37.436Z,-4.02
2023-03-13T05:16:34.054Z,-4.68
2023-03-13T05:17:30.714Z,-4.00
2023-03-13T05:18:27.493Z,-4.00
2023-03-13T05:19:24.200Z,-3.99
2023-03-13T05:20:20.927Z,-3.96
2023-03-13T05:21:17.523Z,-3.97
2023-03-13T05:22:14.169Z,-3.79
2023-03-13T05:23:10.883Z,-3.82
2023-03-13T05:24:07.662Z,-3.64
2023-03-13T05:25:05.926Z,-3.74
2023-03-13T05:26:02.792Z,-3.62
2023-03-13T05:26:59.425Z,-3.45
2023-03-13T05:27:56.049Z,-3.38
2023-03-13T05:28:52.611Z,-3.33
2023-03-13T05:29:49.231Z,-3.31
2023-03-13T05:30:45.869Z,-3.58
2023-03-13T05:31:42.501Z,-3.36
2023-03-13T05:32:39.237Z,-3.33
2023-03-13T05:33:35.872Z,-3.25
2023-03-13T05:34:32.408Z,-3.34
2023-03-13T05:35:29.107Z,-3.37
2023-03-13T05:36:25.838Z,-3.35
2023-03-13T05:37:22.551Z,-3.41
2023-03-13T05:38:19.218Z,-3.32
2023-03-13T05:39:15.816Z,-3.32
2023-03-13T05:40:13.083Z,-3.53
2023-03-13T05:41:09.657Z,-3.02
2023-03-13T05:42:06.375Z,-3.40
2023-03-13T05:43:03.120Z,-2.96
2023-03-13T05:43:59.721Z,-2.92
2023-03-13T05:44:56.326Z,-2.85
2023-03-13T05:45:52.897Z,-2.90
2023-03-13T05:46:49.662Z,-2.95
2023-03-13T05:47:46.336Z,-2.68
2023-03-13T05:48:42.979Z,-2.52
2023-03-13T05:49:39.671Z,-2.60
2023-03-13T05:50:36.323Z,-2.45
2023-03-13T05:51:32.879Z,-2.43
2023-03-13T05:52:29.499Z,-2.59
2023-03-13T05:53:26.122Z,-2.64
2023-03-13T05:54:22.728Z,-2.40
2023-03-13T05:55:19.784Z,-2.39
2023-03-13T05:56:16.370Z,-2.42
2023-03-13T05:57:13.037Z,-2.43
2023-03-13T05:58:09.616Z,-2.35
2023-03-13T05:59:06.170Z,-2.24
2023-03-13T06:00:04.178Z,-2.25
2023-03-13T06:01:12.454Z,-2.07
2023-03-13T06:02:09.061Z,-1.93
2023-03-13T06:03:05.630Z,-1.77
2023-03-13T06:04:02.563Z,-1.44
2023-03-13T06:04:59.404Z,-1.61
2023-03-13T06:05:59.715Z,-1.37
2023-03-13T06:06:56.284Z,-1.36
2023-03-13T06:07:52.983Z,-1.15
2023-03-13T06:08:51.533Z,-0.96
2023-03-13T06:09:48.126Z,-0.96
2023-03-13T06:10:44.678Z,-0.86
2023-03-13T06:11:41.722Z,-0.88
2023-03-13T06:12:38.332Z,-1.01
2023-03-13T06:13:34.951Z,-0.91
2023-03-13T06:14:31.517Z,-1.02
2023-03-13T06:15:28.092Z,-1.32
2023-03-13T06:16:24.741Z,-1.07
2023-03-13T06:17:21.389Z,-1.34
2023-03-13T06:18:17.956Z,-0.79
2023-03-13T06:19:14.561Z,-1.04
2023-03-13T06:20:11.829Z,-0.88
2023-03-13T06:21:08.456Z,-0.76
2023-03-13T06:22:05.153Z,-0.74
2023-03-13T06:23:01.669Z,-0.79
2023-03-13T06:23:58.219Z,-0.79
2023-03-13T06:24:54.830Z,-0.54
2023-03-13T06:25:51.788Z,-1.29
2023-03-13T06:26:50.143Z,-0.84
2023-03-13T06:27:46.831Z,-0.64
2023-03-13T06:28:43.441Z,-0.44
2023-03-13T06:29:40.048Z,-0.23
2023-03-13T06:30:36.695Z,-0.19
2023-03-13T06:31:33.546Z,-0.34
2023-03-13T06:32:30.303Z,-0.28
2023-03-13T06:33:27.063Z,-0.24
2023-03-13T06:34:23.689Z,-0.13
2023-03-13T06:35:20.305Z,0.25
2023-03-13T06:36:16.903Z,-0.19
2023-03-13T06:37:13.509Z,-0.21
2023-03-13T06:38:11.029Z,-0.28
2023-03-13T06:39:08.388Z,-0.31
2023-03-13T06:40:06.339Z,0.13
2023-03-13T06:41:02.991Z,0.30
2023-03-13T06:41:59.732Z,0.24
2023-03-13T06:42:56.367Z,-0.15
2023-03-13T06:43:52.963Z,-0.27
2023-03-13T06:44:49.576Z,-0.35
2023-03-13T06:45:46.641Z,-0.42
2023-03-13T06:46:43.396Z,-0.33
2023-03-13T06:47:40.057Z,-0.24
2023-03-13T06:48:36.678Z,-0.07
2023-03-13T06:49:33.422Z,-0.15
2023-03-13T06:50:31.638Z,0.24
2023-03-13T06:51:28.193Z,0.56
2023-03-13T06:52:37.469Z,0.39
2023-03-13T06:53:37.964Z,0.27
2023-03-13T06:54:34.662Z,0.08
2023-03-13T06:55:31.453Z,-0.10
2023-03-13T06:56:28.089Z,-0.13
2023-03-13T06:57:24.748Z,0.07
2023-03-13T06:58:32.120Z,0.59
2023-03-13T06:59:29.334Z,0.81
2023-03-13T07:00:26.141Z,0.25
2023-03-13T07:01:22.943Z,-0.04
2023-03-13T07:02:19.613Z,0.13
2023-03-13T07:03:16.255Z,0.59
2023-03-13T07:04:13.735Z,0.75
2023-03-13T07:05:10.395Z,0.66
2023-03-13T07:06:08.314Z,0.36
2023-03-13T07:07:05.385Z,0.31
2023-03-13T07:08:02.032Z,0.64
2023-03-13T07:08:58.843Z,0.58
2023-03-13T07:09:55.445Z,0.82
2023-03-13T07:10:53.177Z,0.93
2023-03-13T07:11:49.886Z,1.08
2023-03-13T07:12:46.558Z,1.24
2023-03-13T07:13:43.192Z,1.44
2023-03-13T07:14:39.806Z,0.80
2023-03-13T07:15:36.417Z,0.35
2023-03-13T07:16:33.084Z,0.75
2023-03-13T07:17:29.785Z,0.87
2023-03-13T07:18:26.494Z,0.58
2023-03-13T07:19:23.153Z,0.81
2023-03-13T07:20:19.827Z,1.25
2023-03-13T07:21:16.495Z,0.97
2023-03-13T07:22:13.222Z,0.82
2023-03-13T07:23:10.034Z,0.83
2023-03-13T07:24:07.175Z,1.45
2023-03-13T07:25:05.269Z,1.19
2023-03-13T07:26:07.270Z,1.00
2023-03-13T07:27:07.612Z,0.95
2023-03-13T07:28:04.845Z,1.04
2023-03-13T07:29:01.661Z,1.20
2023-03-13T07:29:58.321Z,1.15
2023-03-13T07:30:55.267Z,1.25
2023-03-13T07:31:51.953Z,1.31
2023-03-13T07:32:48.961Z,1.01
2023-03-13T07:33:46.292Z,0.99
2023-03-13T07:34:44.751Z,1.52
2023-03-13T07:35:41.361Z,1.35
2023-03-13T07:36:38.229Z,1.23
2023-03-13T07:37:34.866Z,0.91
2023-03-13T07:38:31.512Z,1.22
2023-03-13T07:39:28.150Z,1.18
2023-03-13T07:40:24.706Z,1.26
2023-03-13T07:41:21.496Z,1.06
2023-03-13T07:42:18.066Z,1.50
2023-03-13T07:43:14.658Z,1.62
2023-03-13T07:44:11.815Z,1.59
2023-03-13T07:45:09.568Z,1.58
2023-03-13T07:46:08.075Z,1.55
2023-03-13T07:47:04.930Z,1.25
2023-03-13T07:48:01.523Z,1.48
2023-03-13T07:48:58.411Z,1.88
2023-03-13T07:49:55.157Z,1.66
2023-03-13T07:50:52.198Z,1.79
2023-03-13T07:51:51.094Z,2.03
2023-03-13T07:52:47.695Z,1.97
2023-03-13T07:53:47.269Z,2.08
2023-03-13T07:54:43.852Z,2.02
2023-03-13T07:55:40.489Z,2.32
2023-03-13T07:56:37.125Z,2.33
2023-03-13T07:57:33.852Z,2.29
2023-03-13T07:58:33.210Z,2.13
2023-03-13T07:59:30.395Z,1.91
2023-03-13T08:00:27.163Z,1.75
2023-03-13T08:01:29.841Z,2.06
2023-03-13T08:02:27.249Z,1.93
2023-03-13T08:03:26.324Z,1.54
2023-03-13T08:04:23.202Z,2.02
2023-03-13T08:05:19.850Z,2.49
2023-03-13T08:06:23.431Z,2.24
2023-03-13T08:07:20.117Z,2.36
2023-03-13T08:08:16.780Z,3.06
2023-03-13T08:09:13.474Z,3.04
2023-03-13T08:10:10.671Z,2.77
2023-03-13T08:11:10.156Z,2.52
2023-03-13T08:12:07.679Z,2.65
2023-03-13T08:13:04.530Z,2.92
2023-03-13T08:14:01.196Z,3.15
2023-03-13T08:14:58.016Z,2.81
2023-03-13T08:16:04.508Z,2.65
2023-03-13T08:17:01.146Z,2.52
2023-03-13T08:17:58.023Z,2.47
2023-03-13T08:18:56.625Z,3.10
2023-03-13T08:19:53.267Z,2.63
2023-03-13T08:20:50.422Z,2.43
2023-03-13T08:21:47.135Z,2.58
2023-03-13T08:22:43.826Z,2.41
2023-03-13T08:23:40.857Z,2.89
2023-03-13T08:24:37.515Z,3.03
2023-03-13T08:25:34.162Z,3.22
2023-03-13T08:26:31.457Z,3.48
2023-03-13T08:27:29.994Z,3.09
2023-03-13T08:28:26.680Z,2.99
2023-03-13T08:29:23.254Z,3.04
2023-03-13T08:30:20.121Z,2.96
2023-03-13T08:31:19.677Z,3.15
2023-03-13T08:32:18.349Z,3.14
2023-03-13T08:33:15.079Z,3.40
2023-03-13T08:34:12.725Z,3.52
2023-03-13T08:35:09.675Z,4.00
2023-03-13T08:36:13.605Z,3.86
2023-03-13T08:37:10.262Z,3.74
2023-03-13T08:38:07.066Z,3.38
2023-03-13T08:39:11.538Z,3.16
2023-03-13T08:40:11.327Z,2.89
2023-03-13T08:41:08.889Z,3.80
2023-03-13T08:42:05.597Z,3.68
2023-03-13T08:43:02.170Z,4.10
2023-03-13T08:43:58.823Z,4.17
2023-03-13T08:44:55.491Z,4.15
2023-03-13T08:45:56.386Z,4.41
2023-03-13T08:46:53.032Z,4.91
2023-03-13T08:47:53.501Z,4.73
2023-03-13T08:48:51.656Z,4.49
2023-03-13T08:49:48.420Z,4.52
2023-03-13T08:50:46.313Z,4.65
2023-03-13T08:51:45.390Z,4.41
2023-03-13T08:52:45.098Z,4.49
2023-03-13T08:53:43.849Z,4.84
2023-03-13T08:54:40.533Z,5.18
2023-03-13T08:55:37.194Z,4.39
2023-03-13T08:56:34.931Z,4.10
2023-03-13T08:57:31.611Z,4.14
2023-03-13T08:58:28.776Z,4.45
2023-03-13T08:59:26.037Z,4.96
2023-03-13T09:00:23.480Z,4.85
2023-03-13T09:01:21.410Z,4.86
2023-03-13T09:02:20.373Z,4.98
2023-03-13T09:03:17.850Z,4.96
2023-03-13T09:04:14.488Z,4.78
2023-03-13T09:05:11.186Z,5.23
2023-03-13T09:06:08.974Z,5.39
2023-03-13T09:07:05.752Z,4.88
2023-03-13T09:08:02.358Z,4.95
2023-03-13T09:08:59.114Z,4.67
2023-03-13T09:09:55.697Z,4.51
2023-03-13T09:11:07.407Z,4.10
2023-03-13T09:12:04.301Z,4.81
2023-03-13T09:13:01.096Z,5.17
2023-03-13T09:13:59.439Z,4.97
2023-03-13T09:14:56.185Z,4.83
2023-03-13T09:15:57.705Z,5.04
2023-03-13T09:16:54.445Z,5.39
2023-03-13T09:17:51.225Z,5.46
2023-03-13T09:18:48.658Z,4.90
2023-03-13T09:19:59.194Z,5.04
2023-03-13T09:20:56.698Z,5.28
2023-03-13T09:21:53.398Z,5.23
2023-03-13T09:22:50.023Z,5.53
2023-03-13T09:23:47.654Z,5.43
2023-03-13T09:24:45.854Z,5.32
2023-03-13T09:25:42.519Z,5.65
2023-03-13T09:26:42.662Z,5.68
2023-03-13T09:27:43.516Z,5.68
2023-03-13T09:28:42.178Z,5.84
2023-03-13T09:29:41.633Z,5.48
2023-03-13T09:30:38.476Z,5.17
2023-03-13T09:31:35.164Z,5.26
2023-03-13T09:32:31.953Z,5.84
2023-03-13T09:33:28.646Z,5.04
2023-03-13T09:34:25.532Z,5.32
2023-03-13T09:35:22.229Z,5.46
2023-03-13T09:36:22.315Z,5.24
2023-03-13T09:37:19.377Z,5.93
2023-03-13T09:38:20.170Z,6.34
2023-03-13T09:39:16.819Z,5.93
2023-03-13T09:40:17.332Z,5.53
2023-03-13T09:41:22.627Z,6.33
2023-03-13T09:42:24.471Z,6.34
2023-03-13T09:43:39.653Z,6.96
2023-03-13T09:44:54.867Z,6.54
2023-03-13T09:45:55.015Z,6.83
2023-03-13T09:46:54.498Z,6.54
2023-03-13T09:47:56.781Z,5.89
2023-03-13T09:48:59.361Z,5.78
2023-03-13T09:50:04.996Z,5.97
2023-03-13T09:51:36.655Z,6.17
2023-03-13T09:52:41.091Z,4.75
2023-03-13T09:53:45.578Z,6.27
2023-03-13T09:55:04.593Z,6.04
2023-03-13T09:56:05.294Z,5.92
2023-03-13T09:57:31.409Z,6.45
2023-03-13T09:58:30.127Z,6.07
2023-03-13T09:59:26.693Z,6.20
2023-03-13T10:00:40.660Z,6.59
2023-03-13T10:01:40.485Z,6.80
2023-03-13T10:02:37.603Z,7.42
2023-03-13T10:03:40.641Z,7.31
2023-03-13T10:04:48.074Z,7.88
2023-03-13T10:05:50.819Z,7.23
2023-03-13T10:06:48.973Z,7.08
2023-03-13T10:07:45.640Z,7.75
2023-03-13T10:08:42.330Z,7.76
2023-03-13T10:09:40.921Z,7.71
2023-03-13T10:10:46.744Z,7.98
2023-03-13T10:12:04.276Z,7.73
2023-03-13T10:13:10.978Z,7.75
2023-03-13T10:14:20.985Z,7.20
2023-03-13T10:15:34.028Z,7.54
2023-03-13T10:16:39.066Z,7.31
2023-03-13T10:17:37.931Z,7.69
2023-03-13T10:18:34.591Z,8.08
2023-03-13T10:19:42.292Z,8.28
2023-03-13T10:20:40.474Z,8.28
2023-03-13T10:21:38.206Z,7.77
2023-03-13T10:22:34.945Z,7.69
2023-03-13T10:23:48.996Z,7.46
2023-03-13T10:24:45.541Z,7.54
2023-03-13T10:25:42.311Z,7.49
2023-03-13T10:26:39.068Z,8.11
2023-03-13T10:27:50.777Z,7.97
2023-03-13T10:28:48.463Z,8.01
2023-03-13T10:29:45.286Z,8.05
2023-03-13T10:30:54.374Z,8.63
2023-03-13T10:32:03.517Z,7.73
2023-03-13T10:33:18.468Z,7.88
2023-03-13T10:34:15.738Z,7.28
2023-03-13T10:35:20.393Z,8.36
2023-03-13T10:36:19.769Z,7.65
2023-03-13T10:37:20.656Z,7.85
2023-03-13T10:38:23.412Z,8.07
2023-03-13T10:39:23.350Z,7.98
2023-03-13T10:40:26.346Z,8.24
2023-03-13T10:41:28.046Z,8.04
2023-03-13T10:42:31.444Z,7.67
2023-03-13T10:43:30.606Z,8.05
2023-03-13T10:44:33.714Z,8.00
2023-03-13T10:45:36.180Z,8.01
2023-03-13T10:46:33.941Z,8.17
2023-03-13T10:47:35.140Z,7.69
2023-03-13T10:48:37.613Z,8.00
2023-03-13T10:49:34.130Z,7.95
2023-03-13T10:50:34.918Z,7.86
2023-03-13T10:51:40.586Z,7.54
2023-03-13T10:52:49.186Z,8.01
2023-03-13T10:53:45.937Z,8.44
2023-03-13T10:54:45.607Z,8.24
2023-03-13T10:55:44.703Z,8.14
2023-03-13T10:56:41.420Z,8.21
2023-03-13T10:57:38.270Z,8.78
2023-03-13T10:58:41.319Z,9.12
2023-03-13T10:59:45.799Z,9.22
2023-03-13T11:00:44.534Z,9.05
2023-03-13T11:01:44.860Z,9.02
2023-03-13T11:02:44.879Z,8.80
2023-03-13T11:03:44.969Z,9.57
2023-03-13T11:04:42.111Z,9.67
2023-03-13T11:05:43.310Z,9.56
2023-03-13T11:06:39.964Z,9.17
2023-03-13T11:07:40.674Z,8.55
2023-03-13T11:08:37.858Z,9.09
2023-03-13T11:09:34.506Z,9.13
2023-03-13T11:10:32.490Z,9.40
2023-03-13T11:11:31.218Z,8.92
2023-03-13T11:12:28.017Z,9.49
2023-03-13T11:13:41.943Z,9.36
2023-03-13T11:14:38.664Z,9.15
2023-03-13T11:15:57.564Z,9.37
2023-03-13T11:17:15.511Z,8.99
2023-03-13T11:18:24.172Z,9.34
2023-03-13T11:20:02.463Z,9.34
2023-03-13T11:21:15.662Z,8.96
2023-03-13T11:22:27.898Z,8.71
2023-03-13T11:23:32.205Z,8.69
2023-03-13T11:24:53.134Z,9.31
2023-03-13T11:26:02.701Z,9.45
2023-03-13T11:27:08.573Z,9.12
2023-03-13T11:28:17.324Z,8.35
2023-03-13T11:29:36.599Z,8.47
2023-03-13T11:30:43.321Z,8.71
2023-03-13T11:31:56.554Z,9.44
2023-03-13T11:33:01.972Z,9.36
2023-03-13T11:34:16.646Z,9.14
2023-03-13T11:35:35.271Z,8.17
2023-03-13T11:37:02.504Z,8.40
2023-03-13T11:38:03.440Z,8.57
2023-03-13T11:39:15.543Z,8.89
2023-03-13T11:40:24.409Z,8.71
2023-03-13T11:41:52.005Z,9.42
2023-03-13T11:43:00.547Z,9.18
2023-03-13T11:44:04.057Z,9.38
2023-03-13T11:45:17.819Z,9.48
2023-03-13T11:46:19.294Z,9.26
2023-03-13T11:47:36.370Z,8.91
2023-03-13T11:49:12.465Z,9.24
2023-03-13T11:50:21.155Z,9.62
2023-03-13T11:51:23.004Z,9.65
2023-03-13T11:52:38.596Z,9.43
2023-03-13T11:54:09.047Z,8.97
2023-03-13T11:55:28.234Z,9.93
2023-03-13T11:56:50.998Z,10.07
2023-03-13T11:58:13.864Z,10.24
2023-03-13T11:59:55.451Z,9.56
2023-03-13T12:01:25.194Z,9.50
2023-03-13T12:02:39.949Z,9.70
2023-03-13T12:03:44.683Z,9.83
2023-03-13T12:04:46.851Z,10.35
2023-03-13T12:05:58.899Z,9.88
2023-03-13T12:06:59.147Z,9.89
2023-03-13T12:08:19.415Z,10.10
2023-03-13T12:09:31.809Z,9.32
2023-03-13T12:10:37.371Z,9.36
2023-03-13T12:11:45.707Z,9.65
2023-03-13T12:12:48.079Z,9.31
2023-03-13T12:13:52.085Z,9.53
2023-03-13T12:14:52.714Z,9.65
2023-03-13T12:15:56.745Z,10.06
2023-03-13T12:17:01.352Z,9.65
2023-03-13T12:18:15.099Z,9.67
2023-03-13T12:19:26.169Z,9.90
2023-03-13T12:20:33.610Z,10.46
2023-03-13T12:21:42.879Z,9.75
2023-03-13T12:22:45.490Z,10.00
2023-03-13T12:24:09.616Z,9.92
2023-03-13T12:25:11.158Z,9.68
2023-03-13T12:26:15.388Z,9.56
2023-03-13T12:27:16.212Z,9.02
2023-03-13T12:28:25.117Z,9.52
2023-03-13T12:29:32.905Z,9.52
2023-03-13T12:30:29.574Z,9.59
2023-03-13T12:31:39.051Z,9.87
2023-03-13T12:32:44.534Z,9.26
2023-03-13T12:33:56.351Z,9.20
2023-03-13T12:35:15.444Z,9.52
2023-03-13T12:36:29.507Z,9.50
2023-03-13T12:38:01.934Z,9.11
2023-03-13T12:39:43.478Z,9.53
2023-03-13T12:41:13.237Z,9.61
2023-03-13T12:42:36.607Z,9.95
2023-03-13T12:43:35.196Z,10.05
2023-03-13T12:44:32.366Z,10.27
2023-03-13T12:45:29.921Z,10.23
2023-03-13T12:46:47.886Z,10.00
2023-03-13T12:48:09.269Z,9.80
2023-03-13T12:49:43.170Z,9.38
2023-03-13T12:50:55.312Z,9.61
2023-03-13T12:52:26.579Z,10.06
2023-03-13T12:54:05.252Z,9.83
2023-03-13T12:55:10.068Z,10.06
2023-03-13T12:56:15.636Z,10.10
2023-03-13T12:57:29.802Z,9.95
2023-03-13T12:58:45.376Z,10.38
2023-03-13T12:59:46.145Z,9.28
2023-03-13T13:00:47.028Z,10.22
2023-03-13T13:01:48.349Z,9.77
2023-03-13T13:02:45.704Z,9.94
2023-03-13T13:03:53.055Z,9.43
2023-03-13T13:04:53.504Z,9.59
2023-03-13T13:06:03.316Z,9.50